Time;durP1;ratioP1;P1;durP2;ratioP2;P2;SDS_P1;SDS_P2;PMS_P1;PMS_P2;Temp;Humidity;BMP_temperature;BMP_pressure;BME280_temperature;BME280_humidity;BME280_pressure;Samples;Min_cycle;Max_cycle;Signal;HPM_P1;HPM_P2
2022/09/09 00:00:20;;;;;;;3.42;1.08;;;;;;;;;;5059586;28;20024;-57
2022/09/09 00:03:20;;;;;;;1.10;0.80;;;;;;;;;;5065463;28;20037;-57
2022/09/09 00:06:05;;;;;;;2.25;1.10;;;;;;;;;;5064659;28;20085;-57
2022/09/09 00:09:05;;;;;;;3.60;1.10;;;;;;;;;;5065279;28;20504;-57
2022/09/09 00:11:40;;;;;;;2.33;1.00;;;;;;;;;;5070398;28;20040;-57
2022/09/09 00:14:32;;;;;;;1.67;0.70;;;;;;;;;;5065221;28;20077;-57
2022/09/09 00:17:04;;;;;;;4.47;1.10;;;;;;;;;;5064893;28;20652;-57
2022/09/09 00:19:45;;;;;;;5.47;1.08;;;;;;;;;;5067332;28;20145;-57
2022/09/09 00:22:21;;;;;;;2.05;0.80;;;;;;;;;;5066676;28;20251;-57
2022/09/09 00:24:54;;;;;;;2.72;1.05;;;;;;;;;;5065434;28;20110;-57
2022/09/09 00:27:24;;;;;;;5.40;1.35;;;;;;;;;;5064894;28;20029;-57
2022/09/09 00:30:10;;;;;;;5.18;0.80;;;;;;;;;;5059796;28;20032;-57
2022/09/09 00:32:36;;;;;;;4.43;1.00;;;;;;;;;;5060963;28;20074;-57
2022/09/09 00:35:15;;;;;;;2.13;0.90;;;;;;;;;;5062307;28;20462;-57
2022/09/09 00:37:42;;;;;;;4.40;0.80;;;;;;;;;;5065213;28;20028;-58
2022/09/09 00:40:36;;;;;;;3.40;0.90;;;;;;;;;;5063230;28;20066;-57
2022/09/09 00:43:21;;;;;;;1.48;0.98;;;;;;;;;;5059430;28;20090;-57
2022/09/09 00:46:28;;;;;;;3.55;0.90;;;;;;;;;;5059938;28;20462;-58
2022/09/09 00:49:05;;;;;;;3.25;1.20;;;;;;;;;;5063359;28;20502;-58
2022/09/09 00:51:39;;;;;;;2.83;1.17;;;;;;;;;;5062218;28;20504;-56
2022/09/09 00:54:08;;;;;;;4.53;1.27;;;;;;;;;;5057996;28;20032;-56
2022/09/09 00:57:03;;;;;;;4.25;1.20;;;;;;;;;;5065598;28;20111;-57
2022/09/09 00:59:48;;;;;;;2.60;1.05;;;;;;;;;;5062523;28;20120;-56
2022/09/09 01:02:21;;;;;;;3.00;1.10;;;;;;;;;;5061227;28;20496;-56
2022/09/09 01:04:47;;;;;;;1.73;0.82;;;;;;;;;;5063658;28;20020;-57
2022/09/09 01:07:18;;;;;;;1.25;0.80;;;;;;;;;;5067044;28;20058;-57
2022/09/09 01:09:57;;;;;;;3.55;0.93;;;;;;;;;;5067297;28;20107;-57
2022/09/09 01:12:41;;;;;;;2.83;0.93;;;;;;;;;;5066938;28;20115;-57
2022/09/09 01:15:30;;;;;;;3.83;0.80;;;;;;;;;;5063736;28;20218;-57
2022/09/09 01:18:09;;;;;;;4.18;1.02;;;;;;;;;;5065995;28;20060;-56
2022/09/09 01:20:49;;;;;;;3.78;1.05;;;;;;;;;;5063118;28;20021;-57
2022/09/09 01:23:35;;;;;;;16.20;1.25;;;;;;;;;;5065419;28;20448;-57
2022/09/09 01:26:19;;;;;;;2.95;1.00;;;;;;;;;;5067797;28;20024;-57
2022/09/09 01:32:45;;;;;;;2.35;1.10;;;;;;;;;;5064564;28;20047;-56
2022/09/09 01:35:32;;;;;;;1.70;0.82;;;;;;;;;;5065220;28;20025;-56
2022/09/09 01:37:58;;;;;;;2.53;0.90;;;;;;;;;;5059308;28;20429;-56
2022/09/09 01:40:25;;;;;;;4.65;1.40;;;;;;;;;;5067099;28;20021;-56
2022/09/09 01:42:52;;;;;;;2.65;1.30;;;;;;;;;;5062954;28;20033;-56
2022/09/09 01:45:17;;;;;;;2.13;1.00;;;;;;;;;;5062753;28;20032;-56
2022/09/09 01:47:44;;;;;;;2.72;1.13;;;;;;;;;;5067548;28;20030;-56
2022/09/09 01:50:12;;;;;;;4.10;1.30;;;;;;;;;;5064594;28;20405;-57
2022/09/09 01:52:38;;;;;;;5.28;1.10;;;;;;;;;;5061217;28;20059;-56
2022/09/09 01:55:05;;;;;;;3.17;1.13;;;;;;;;;;5066464;28;20040;-57
2022/09/09 01:57:36;;;;;;;3.60;0.90;;;;;;;;;;5059808;28;20017;-57
2022/09/09 02:00:08;;;;;;;4.40;1.25;;;;;;;;;;5059641;28;20040;-55
2022/09/09 02:02:37;;;;;;;3.60;1.05;;;;;;;;;;5062409;28;20033;-55
2022/09/09 02:05:17;;;;;;;5.05;1.20;;;;;;;;;;5065137;28;20028;-56
2022/09/09 02:07:48;;;;;;;4.20;1.60;;;;;;;;;;5067438;28;20044;-56
2022/09/09 02:10:19;;;;;;;6.70;1.60;;;;;;;;;;5063798;28;20036;-56
2022/09/09 02:12:50;;;;;;;3.20;1.75;;;;;;;;;;5065708;28;20547;-56
2022/09/09 02:15:32;;;;;;;3.38;1.77;;;;;;;;;;5063856;28;20074;-56
2022/09/09 02:18:00;;;;;;;4.97;1.80;;;;;;;;;;5065932;28;20417;-56
2022/09/09 02:20:27;;;;;;;3.80;1.58;;;;;;;;;;5065478;28;20025;-56
2022/09/09 02:22:55;;;;;;;5.82;1.80;;;;;;;;;;5069286;28;20028;-57
2022/09/09 02:25:24;;;;;;;3.30;1.90;;;;;;;;;;5064037;28;20112;-56
2022/09/09 02:27:51;;;;;;;5.63;1.80;;;;;;;;;;5064364;28;20037;-56
2022/09/09 02:30:18;;;;;;;4.68;1.60;;;;;;;;;;5065619;28;20157;-56
2022/09/09 02:32:45;;;;;;;4.53;1.45;;;;;;;;;;5063866;28;20029;-56
2022/09/09 02:35:17;;;;;;;3.75;1.67;;;;;;;;;;5065303;28;20020;-56
2022/09/09 02:37:46;;;;;;;9.93;1.88;;;;;;;;;;5066317;28;20423;-56
2022/09/09 02:40:15;;;;;;;4.50;1.65;;;;;;;;;;5068298;28;20193;-56
2022/09/09 02:42:46;;;;;;;3.65;1.73;;;;;;;;;;5064991;28;20098;-57
2022/09/09 02:45:19;;;;;;;4.60;2.10;;;;;;;;;;5063378;28;20032;-56
2022/09/09 02:48:13;;;;;;;4.70;1.90;;;;;;;;;;5061634;28;20039;-56
2022/09/09 02:50:59;;;;;;;4.32;1.50;;;;;;;;;;5061449;28;20024;-57
2022/09/09 02:53:36;;;;;;;7.43;1.60;;;;;;;;;;5059276;28;20033;-56
2022/09/09 02:56:13;;;;;;;3.72;1.50;;;;;;;;;;5061034;28;20606;-57
2022/09/09 02:58:39;;;;;;;5.43;1.48;;;;;;;;;;5059258;28;20032;-57
2022/09/09 03:01:04;;;;;;;5.05;1.80;;;;;;;;;;5075713;28;20367;-56
2022/09/09 03:03:30;;;;;;;3.60;2.00;;;;;;;;;;5067009;28;20036;-56
2022/09/09 03:05:56;;;;;;;7.28;1.67;;;;;;;;;;5056098;28;20031;-56
2022/09/09 03:08:22;;;;;;;8.55;1.65;;;;;;;;;;5068006;28;20314;-56
2022/09/09 03:10:47;;;;;;;4.57;1.50;;;;;;;;;;5067150;28;20070;-56
2022/09/09 03:13:14;;;;;;;3.67;1.60;;;;;;;;;;5066047;28;20036;-56
2022/09/09 03:15:40;;;;;;;4.20;1.48;;;;;;;;;;5063556;28;20025;-57
2022/09/09 03:18:05;;;;;;;3.38;1.60;;;;;;;;;;5068326;28;20031;-56
2022/09/09 03:20:31;;;;;;;6.30;1.60;;;;;;;;;;5065298;28;20026;-56
2022/09/09 03:22:57;;;;;;;4.05;1.73;;;;;;;;;;5066333;28;20420;-56
2022/09/09 03:25:23;;;;;;;6.40;1.50;;;;;;;;;;5068440;28;20028;-56
2022/09/09 03:27:50;;;;;;;10.48;4.88;;;;;;;;;;5065608;28;20425;-57
2022/09/09 03:30:15;;;;;;;10.05;4.32;;;;;;;;;;5064606;28;20103;-56
2022/09/09 03:32:41;;;;;;;4.22;2.20;;;;;;;;;;5062644;28;20116;-57
2022/09/09 03:35:07;;;;;;;5.57;2.13;;;;;;;;;;5064503;28;20028;-57
2022/09/09 03:37:32;;;;;;;3.97;1.52;;;;;;;;;;5063113;28;20098;-56
2022/09/09 03:39:59;;;;;;;2.05;1.23;;;;;;;;;;5067531;28;20717;-57
2022/09/09 03:42:25;;;;;;;3.00;1.33;;;;;;;;;;5063040;28;20025;-57
2022/09/09 03:44:51;;;;;;;3.03;1.35;;;;;;;;;;5065440;28;20048;-57
2022/09/09 03:47:21;;;;;;;8.45;1.73;;;;;;;;;;5059882;28;20490;-56
2022/09/09 03:49:48;;;;;;;5.68;1.33;;;;;;;;;;5051915;28;20028;-56
2022/09/09 03:52:14;;;;;;;3.40;1.25;;;;;;;;;;5057536;28;20056;-57
2022/09/09 03:54:41;;;;;;;3.88;2.03;;;;;;;;;;5064079;28;20438;-57
2022/09/09 03:57:06;;;;;;;3.58;1.60;;;;;;;;;;5063046;28;20252;-57
2022/09/09 03:59:31;;;;;;;4.47;1.50;;;;;;;;;;5068175;28;20032;-57
2022/09/09 04:01:58;;;;;;;5.32;1.45;;;;;;;;;;5064356;28;20028;-57
2022/09/09 04:04:25;;;;;;;3.75;1.05;;;;;;;;;;5066214;28;20123;-57
2022/09/09 04:06:51;;;;;;;3.75;1.63;;;;;;;;;;5064954;28;20051;-57
2022/09/09 04:09:17;;;;;;;4.30;2.58;;;;;;;;;;5067802;28;20055;-57
2022/09/09 04:11:42;;;;;;;3.55;2.13;;;;;;;;;;5064959;28;20058;-57
2022/09/09 04:14:08;;;;;;;8.85;3.80;;;;;;;;;;5066616;28;20120;-57
2022/09/09 04:16:37;;;;;;;6.03;2.92;;;;;;;;;;5065657;28;20035;-57
2022/09/09 04:19:04;;;;;;;3.65;1.58;;;;;;;;;;5066090;28;20115;-57
2022/09/09 04:21:30;;;;;;;4.57;1.45;;;;;;;;;;5056333;28;20416;-56
2022/09/09 04:23:55;;;;;;;5.47;1.38;;;;;;;;;;5066110;28;20029;-57
2022/09/09 04:26:21;;;;;;;3.78;1.65;;;;;;;;;;5064365;28;20440;-57
2022/09/09 04:28:47;;;;;;;2.38;1.42;;;;;;;;;;5062692;28;20024;-57
2022/09/09 04:31:19;;;;;;;3.85;1.38;;;;;;;;;;5062272;28;20081;-57
2022/09/09 04:33:46;;;;;;;4.60;1.80;;;;;;;;;;5064440;28;20028;-56
2022/09/09 04:36:12;;;;;;;3.28;1.65;;;;;;;;;;5063154;28;20056;-56
2022/09/09 04:38:37;;;;;;;3.97;1.60;;;;;;;;;;5056842;28;20044;-57
2022/09/09 04:41:04;;;;;;;3.05;1.20;;;;;;;;;;5062876;28;20170;-56
2022/09/09 04:43:30;;;;;;;5.10;1.50;;;;;;;;;;5059846;28;20029;-56
2022/09/09 04:45:56;;;;;;;6.57;1.60;;;;;;;;;;5059930;28;20020;-56
2022/09/09 04:48:21;;;;;;;3.63;1.60;;;;;;;;;;5064621;28;20039;-57
2022/09/09 04:50:59;;;;;;;4.78;1.35;;;;;;;;;;5060746;28;20031;-57
2022/09/09 04:53:25;;;;;;;3.45;1.65;;;;;;;;;;5057171;28;20040;-57
2022/09/09 04:56:04;;;;;;;3.55;1.50;;;;;;;;;;5064950;28;20032;-56
2022/09/09 04:58:29;;;;;;;3.97;1.50;;;;;;;;;;5059819;28;20390;-56
2022/09/09 05:00:55;;;;;;;3.30;1.45;;;;;;;;;;5060130;28;20035;-56
2022/09/09 05:03:21;;;;;;;2.58;1.20;;;;;;;;;;5066042;28;20025;-57
2022/09/09 05:05:47;;;;;;;4.43;1.60;;;;;;;;;;5069382;28;20039;-57
2022/09/09 05:08:19;;;;;;;5.93;1.85;;;;;;;;;;5070719;28;20020;-57
2022/09/09 05:10:44;;;;;;;2.92;1.73;;;;;;;;;;5067791;28;20047;-58
2022/09/09 05:13:11;;;;;;;2.53;1.60;;;;;;;;;;5069164;28;20103;-58
2022/09/09 05:15:36;;;;;;;4.30;1.60;;;;;;;;;;5068427;28;20024;-57
2022/09/09 05:18:02;;;;;;;2.95;1.48;;;;;;;;;;5069598;28;20486;-57
2022/09/09 05:20:28;;;;;;;2.97;1.45;;;;;;;;;;5066610;28;20024;-57
2022/09/09 05:22:54;;;;;;;3.97;1.50;;;;;;;;;;5064961;28;20059;-58
2022/09/09 05:25:27;;;;;;;1.92;1.33;;;;;;;;;;5069161;28;20033;-58
2022/09/09 05:27:53;;;;;;;5.05;1.75;;;;;;;;;;5064385;28;20413;-58
2022/09/09 05:30:19;;;;;;;3.42;1.80;;;;;;;;;;5058882;28;20029;-57
2022/09/09 05:32:45;;;;;;;6.93;2.08;;;;;;;;;;5065543;28;20025;-57
2022/09/09 05:35:10;;;;;;;4.00;1.63;;;;;;;;;;5061769;28;20383;-52
2022/09/09 05:37:35;;;;;;;4.10;2.10;;;;;;;;;;5064107;28;20032;-58
2022/09/09 05:40:01;;;;;;;3.83;1.80;;;;;;;;;;5062499;28;20422;-57
2022/09/09 05:42:30;;;;;;;4.80;1.55;;;;;;;;;;5062950;28;20112;-57
2022/09/09 05:44:56;;;;;;;2.80;1.50;;;;;;;;;;5061995;28;20052;-57
2022/09/09 05:47:21;;;;;;;4.15;1.60;;;;;;;;;;5065122;28;20056;-57
2022/09/09 05:49:46;;;;;;;5.38;1.70;;;;;;;;;;5067983;28;20024;-57
2022/09/09 05:52:12;;;;;;;3.60;1.42;;;;;;;;;;5059000;28;20033;-57
2022/09/09 05:54:37;;;;;;;4.50;1.55;;;;;;;;;;5063843;28;20071;-57
2022/09/09 05:57:03;;;;;;;4.70;1.50;;;;;;;;;;5065002;28;20507;-58
2022/09/09 05:59:28;;;;;;;3.58;1.40;;;;;;;;;;5061469;28;20064;-57
2022/09/09 06:01:54;;;;;;;2.47;1.27;;;;;;;;;;5065308;28;20032;-57
2022/09/09 06:04:22;;;;;;;3.75;1.73;;;;;;;;;;5058661;28;20485;-58
2022/09/09 06:06:48;;;;;;;1.55;1.25;;;;;;;;;;5067081;28;20036;-58
2022/09/09 06:09:15;;;;;;;3.33;2.47;;;;;;;;;;5063869;28;20067;-58
2022/09/09 06:11:40;;;;;;;4.63;1.75;;;;;;;;;;5064622;28;20073;-58
2022/09/09 06:14:07;;;;;;;3.85;1.33;;;;;;;;;;5066806;28;20028;-58
2022/09/09 06:16:33;;;;;;;4.90;1.73;;;;;;;;;;5066383;28;20027;-57
2022/09/09 06:19:00;;;;;;;2.47;1.58;;;;;;;;;;5061184;28;20413;-58
2022/09/09 06:21:32;;;;;;;3.15;1.65;;;;;;;;;;5062377;28;20055;-58
2022/09/09 06:23:57;;;;;;;2.03;1.40;;;;;;;;;;5066771;28;20052;-57
2022/09/09 06:26:33;;;;;;;6.82;1.80;;;;;;;;;;5065900;28;20458;-58
2022/09/09 06:28:59;;;;;;;4.18;2.05;;;;;;;;;;5066128;28;20024;-58
2022/09/09 06:31:30;;;;;;;6.70;3.13;;;;;;;;;;5060364;28;20040;-57
2022/09/09 06:33:56;;;;;;;3.90;1.73;;;;;;;;;;5066151;28;20024;-57
2022/09/09 06:36:24;;;;;;;10.52;4.93;;;;;;;;;;5064774;28;20064;-57
2022/09/09 06:38:50;;;;;;;5.45;2.75;;;;;;;;;;5064855;28;20071;-58
2022/09/09 06:41:18;;;;;;;7.03;2.47;;;;;;;;;;5060695;28;20067;-58
2022/09/09 06:43:44;;;;;;;2.55;1.55;;;;;;;;;;5061205;28;20083;-59
2022/09/09 06:46:23;;;;;;;6.05;1.52;;;;;;;;;;5063972;28;20036;-59
2022/09/09 06:48:49;;;;;;;5.47;2.42;;;;;;;;;;5061018;28;20128;-59
2022/09/09 06:51:16;;;;;;;6.05;2.53;;;;;;;;;;5054961;28;20112;-58
2022/09/09 06:53:44;;;;;;;3.38;1.63;;;;;;;;;;5059203;28;20091;-59
2022/09/09 06:56:09;;;;;;;4.82;1.90;;;;;;;;;;5060267;28;20555;-59
2022/09/09 06:58:35;;;;;;;3.33;1.40;;;;;;;;;;5066746;28;20031;-59
2022/09/09 07:01:05;;;;;;;3.92;1.48;;;;;;;;;;5066485;28;20545;-58
2022/09/09 07:03:31;;;;;;;5.03;1.77;;;;;;;;;;5067234;28;20109;-58
2022/09/09 07:05:56;;;;;;;7.50;2.35;;;;;;;;;;5065692;28;20486;-58
2022/09/09 07:08:23;;;;;;;3.40;1.50;;;;;;;;;;5060252;28;20042;-58
2022/09/09 07:10:49;;;;;;;2.85;1.70;;;;;;;;;;5061503;28;20482;-58
2022/09/09 07:13:15;;;;;;;4.22;1.60;;;;;;;;;;5064619;28;20059;-58
2022/09/09 07:15:41;;;;;;;5.35;1.80;;;;;;;;;;5066405;28;20620;-58
2022/09/09 07:18:10;;;;;;;6.90;1.55;;;;;;;;;;5066657;28;20029;-58
2022/09/09 07:20:35;;;;;;;1.58;1.20;;;;;;;;;;5061743;28;20039;-59
2022/09/09 07:23:00;;;;;;;3.28;1.45;;;;;;;;;;5062851;28;20025;-58
2022/09/09 07:25:28;;;;;;;4.25;1.40;;;;;;;;;;5063907;28;20020;-58
2022/09/09 07:27:54;;;;;;;3.58;1.50;;;;;;;;;;5063713;28;20053;-59
2022/09/09 07:30:20;;;;;;;4.20;1.60;;;;;;;;;;5061617;28;20409;-58
2022/09/09 07:32:45;;;;;;;8.80;2.33;;;;;;;;;;5061065;28;20029;-59
2022/09/09 07:35:11;;;;;;;5.20;2.70;;;;;;;;;;5062049;28;20055;-58
2022/09/09 07:37:37;;;;;;;7.70;2.88;;;;;;;;;;5061833;28;20854;-58
2022/09/09 07:40:03;;;;;;;3.75;1.80;;;;;;;;;;5062939;28;20030;-58
2022/09/09 07:42:29;;;;;;;6.30;1.80;;;;;;;;;;5066107;28;20029;-58
2022/09/09 07:44:54;;;;;;;3.33;1.50;;;;;;;;;;5062097;28;20028;-58
2022/09/09 07:47:20;;;;;;;3.75;1.38;;;;;;;;;;5063378;28;20060;-58
2022/09/09 07:49:47;;;;;;;5.20;2.30;;;;;;;;;;5062152;28;20063;-58
2022/09/09 07:52:12;;;;;;;6.03;1.90;;;;;;;;;;5061265;28;20045;-59
2022/09/09 07:54:52;;;;;;;4.85;1.52;;;;;;;;;;5064243;28;20043;-58
2022/09/09 07:57:52;;;;;;;2.97;2.00;;;;;;;;;;5059839;28;20036;-58
2022/09/09 08:00:18;;;;;;;5.47;1.60;;;;;;;;;;5061818;28;20024;-57
2022/09/09 08:02:46;;;;;;;3.58;1.30;;;;;;;;;;5060406;28;20016;-59
2022/09/09 08:05:12;;;;;;;6.10;1.50;;;;;;;;;;5063464;28;20036;-58
2022/09/09 08:07:38;;;;;;;2.03;1.40;;;;;;;;;;5062853;28;20027;-58
2022/09/09 08:10:04;;;;;;;3.55;1.58;;;;;;;;;;5064838;28;20028;-58
2022/09/09 08:12:29;;;;;;;4.55;1.60;;;;;;;;;;5060127;28;20028;-58
2022/09/09 08:14:54;;;;;;;3.30;1.45;;;;;;;;;;5061195;28;20054;-58
2022/09/09 08:17:20;;;;;;;4.20;1.92;;;;;;;;;;5063778;28;20021;-58
2022/09/09 08:19:45;;;;;;;6.28;2.10;;;;;;;;;;5065213;28;20036;-58
2022/09/09 08:22:11;;;;;;;6.13;1.33;;;;;;;;;;5065583;28;20038;-59
2022/09/09 08:24:36;;;;;;;3.80;1.95;;;;;;;;;;5061344;28;20032;-58
2022/09/09 08:27:02;;;;;;;3.70;1.40;;;;;;;;;;5063790;28;20059;-58
2022/09/09 08:29:28;;;;;;;6.22;1.60;;;;;;;;;;5060891;28;20390;-58
2022/09/09 08:31:57;;;;;;;5.15;1.50;;;;;;;;;;5062153;28;20036;-58
2022/09/09 08:34:24;;;;;;;3.10;1.58;;;;;;;;;;5071938;28;20577;-58
2022/09/09 08:36:50;;;;;;;4.05;1.52;;;;;;;;;;5067019;28;20720;-58
2022/09/09 08:39:18;;;;;;;3.17;1.60;;;;;;;;;;5065727;28;20721;-58
2022/09/09 08:42:02;;;;;;;4.35;1.50;;;;;;;;;;5067133;28;20033;-58
2022/09/09 08:44:48;;;;;;;4.18;1.50;;;;;;;;;;5063079;28;20039;-58
2022/09/09 08:47:39;;;;;;;2.90;1.55;;;;;;;;;;5065468;28;20620;-58
2022/09/09 08:50:24;;;;;;;4.32;1.40;;;;;;;;;;5064532;28;20029;-58
2022/09/09 08:53:00;;;;;;;5.65;1.80;;;;;;;;;;5062124;28;20035;-58
2022/09/09 08:55:35;;;;;;;4.97;1.48;;;;;;;;;;5061418;28;20017;-58
2022/09/09 08:58:09;;;;;;;3.97;1.20;;;;;;;;;;5061102;28;20020;-59
2022/09/09 09:00:50;;;;;;;6.60;1.58;;;;;;;;;;5071274;28;20025;-58
2022/09/09 09:03:39;;;;;;;2.88;1.20;;;;;;;;;;5069929;28;20078;-58
2022/09/09 09:06:09;;;;;;;2.83;1.30;;;;;;;;;;5059982;28;20075;-59
2022/09/09 09:08:51;;;;;;;4.93;1.38;;;;;;;;;;5068447;28;20045;-58
2022/09/09 09:11:17;;;;;;;4.38;1.50;;;;;;;;;;5064036;28;20517;-58
2022/09/09 09:14:11;;;;;;;4.25;1.27;;;;;;;;;;5067985;28;20032;-58
2022/09/09 09:16:57;;;;;;;4.55;1.48;;;;;;;;;;5069136;28;20043;-58
2022/09/09 09:19:24;;;;;;;6.25;1.30;;;;;;;;;;5068114;28;20045;-59
2022/09/09 09:22:18;;;;;;;6.65;1.70;;;;;;;;;;5064237;28;20032;-58
2022/09/09 09:25:10;;;;;;;4.43;1.30;;;;;;;;;;5068379;28;20086;-59
2022/09/09 09:27:58;;;;;;;4.20;1.30;;;;;;;;;;5062285;28;20035;-58
2022/09/09 09:30:26;;;;;;;4.88;1.35;;;;;;;;;;5066545;28;20041;-58
2022/09/09 09:33:00;;;;;;;3.67;1.10;;;;;;;;;;5066318;28;20039;-58
2022/09/09 09:35:25;;;;;;;5.45;1.42;;;;;;;;;;5064161;28;20097;-59
2022/09/09 09:37:52;;;;;;;5.72;1.15;;;;;;;;;;5057023;28;20024;-58
2022/09/09 09:40:19;;;;;;;2.88;0.88;;;;;;;;;;5065035;28;20033;-58
2022/09/09 09:42:54;;;;;;;2.80;1.02;;;;;;;;;;5068292;28;20390;-58
2022/09/09 09:45:29;;;;;;;4.45;1.20;;;;;;;;;;5060109;28;20720;-58
2022/09/09 09:48:03;;;;;;;3.75;0.90;;;;;;;;;;5064883;28;20402;-58
2022/09/09 09:50:29;;;;;;;2.50;1.10;;;;;;;;;;5068474;28;20033;-59
2022/09/09 09:53:02;;;;;;;4.80;1.02;;;;;;;;;;5066749;28;20525;-59
2022/09/09 09:55:29;;;;;;;2.83;1.00;;;;;;;;;;5066826;28;20062;-58
2022/09/09 09:58:01;;;;;;;2.80;1.20;;;;;;;;;;5063871;28;20028;-59
2022/09/09 10:00:27;;;;;;;5.32;1.20;;;;;;;;;;5068892;28;20033;-58
2022/09/09 10:02:53;;;;;;;5.07;1.20;;;;;;;;;;5067730;28;20548;-59
2022/09/09 10:05:22;;;;;;;5.05;1.10;;;;;;;;;;5066789;28;20067;-58
2022/09/09 10:08:04;;;;;;;3.08;0.93;;;;;;;;;;5066589;28;20032;-59
2022/09/09 10:10:42;;;;;;;4.97;1.10;;;;;;;;;;5064605;28;20107;-59
2022/09/09 10:13:33;;;;;;;4.07;1.13;;;;;;;;;;5065029;28;20042;-58
2022/09/09 10:16:17;;;;;;;16.10;1.23;;;;;;;;;;5066144;28;20025;-58
2022/09/09 10:19:00;;;;;;;2.08;0.90;;;;;;;;;;5064975;28;20473;-58
2022/09/09 10:21:53;;;;;;;2.83;1.10;;;;;;;;;;5063560;28;20028;-58
2022/09/09 10:24:24;;;;;;;4.47;1.00;;;;;;;;;;5056235;28;20486;-58
2022/09/09 10:27:04;;;;;;;4.15;1.20;;;;;;;;;;5062339;28;20405;-58
2022/09/09 10:29:43;;;;;;;5.25;0.98;;;;;;;;;;5067773;28;20488;-58
2022/09/09 10:32:27;;;;;;;6.95;1.10;;;;;;;;;;5067860;28;20044;-58
2022/09/09 10:34:57;;;;;;;3.08;1.30;;;;;;;;;;5066566;28;20045;-58
2022/09/09 10:38:08;;;;;;;5.68;1.65;;;;;;;;;;5065897;28;20142;-58
2022/09/09 10:40:44;;;;;;;4.35;1.10;;;;;;;;;;5062168;28;20028;-58
2022/09/09 10:43:40;;;;;;;6.95;2.65;;;;;;;;;;5063304;28;20033;-58
2022/09/09 10:46:17;;;;;;;2.97;1.00;;;;;;;;;;5064149;28;20055;-58
2022/09/09 10:48:49;;;;;;;5.25;1.10;;;;;;;;;;5064026;28;20025;-58
2022/09/09 10:51:29;;;;;;;4.13;1.30;;;;;;;;;;5064128;28;20175;-58
2022/09/09 10:54:25;;;;;;;2.75;0.90;;;;;;;;;;5065417;28;20151;-58
2022/09/09 10:56:57;;;;;;;4.18;1.13;;;;;;;;;;5065147;28;20032;-58
2022/09/09 10:59:36;;;;;;;4.32;1.13;;;;;;;;;;5066989;28;20029;-59
2022/09/09 11:02:19;;;;;;;4.68;0.80;;;;;;;;;;5061947;28;20047;-61
2022/09/09 11:04:56;;;;;;;3.45;0.95;;;;;;;;;;5064672;28;20041;-59
2022/09/09 11:07:46;;;;;;;3.38;0.98;;;;;;;;;;5066254;28;20034;-56
2022/09/09 11:10:26;;;;;;;2.10;0.88;;;;;;;;;;5067413;28;20521;-55
2022/09/09 11:12:58;;;;;;;2.22;1.05;;;;;;;;;;5065240;28;20094;-54
2022/09/09 11:15:38;;;;;;;3.63;1.02;;;;;;;;;;5064123;28;20032;-55
2022/09/09 11:18:06;;;;;;;3.17;1.10;;;;;;;;;;5062416;28;20474;-54
2022/09/09 11:20:32;;;;;;;3.85;0.98;;;;;;;;;;5064244;28;20032;-54
2022/09/09 11:23:05;;;;;;;3.40;1.20;;;;;;;;;;5063750;28;20030;-55
2022/09/09 11:25:37;;;;;;;4.38;0.73;;;;;;;;;;5059123;28;20639;-54
2022/09/09 11:28:32;;;;;;;1.85;1.00;;;;;;;;;;5059679;28;20093;-55
2022/09/09 11:31:15;;;;;;;5.75;0.90;;;;;;;;;;5062521;28;20397;-56
2022/09/09 11:34:00;;;;;;;4.63;0.93;;;;;;;;;;5061149;28;20028;-56
2022/09/09 11:36:54;;;;;;;6.72;0.90;;;;;;;;;;5061060;28;20037;-56
2022/09/09 11:39:56;;;;;;;2.17;0.88;;;;;;;;;;5063002;28;20083;-55
2022/09/09 11:42:24;;;;;;;3.00;1.20;;;;;;;;;;5056908;28;20036;-56
2022/09/09 11:44:50;;;;;;;6.10;0.73;;;;;;;;;;5063764;28;20086;-56
2022/09/09 11:47:29;;;;;;;3.00;1.00;;;;;;;;;;5059539;28;20112;-56
2022/09/09 11:50:30;;;;;;;2.63;0.85;;;;;;;;;;5061679;28;20086;-56
2022/09/09 11:53:13;;;;;;;5.18;1.00;;;;;;;;;;5058809;28;20039;-58
2022/09/09 11:55:39;;;;;;;5.90;1.35;;;;;;;;;;5063545;28;20024;-57
2022/09/09 11:58:15;;;;;;;2.90;0.85;;;;;;;;;;5066045;28;20054;-57
2022/09/09 12:00:41;;;;;;;2.78;1.00;;;;;;;;;;5064934;28;20031;-58
2022/09/09 12:03:32;;;;;;;4.22;1.08;;;;;;;;;;5063838;28;20561;-57
2022/09/09 12:05:59;;;;;;;4.30;0.98;;;;;;;;;;5057400;28;20117;-55
2022/09/09 12:08:28;;;;;;;3.08;0.90;;;;;;;;;;5060570;28;20055;-56
2022/09/09 12:10:56;;;;;;;5.50;1.00;;;;;;;;;;5061850;28;20489;-56
2022/09/09 12:13:24;;;;;;;6.65;0.90;;;;;;;;;;5063651;28;20099;-56
2022/09/09 12:15:53;;;;;;;3.22;0.85;;;;;;;;;;5063668;28;20043;-56
2022/09/09 12:18:36;;;;;;;3.88;0.80;;;;;;;;;;5056634;28;20390;-56
2022/09/09 12:21:17;;;;;;;3.35;0.85;;;;;;;;;;5059353;28;20107;-56
2022/09/09 12:23:50;;;;;;;3.53;0.80;;;;;;;;;;5061337;28;20029;-56
2022/09/09 12:26:36;;;;;;;1.90;0.80;;;;;;;;;;5064068;28;20059;-58
2022/09/09 12:29:11;;;;;;;1.55;0.60;;;;;;;;;;5059177;28;20036;-55
2022/09/09 12:31:48;;;;;;;3.63;0.80;;;;;;;;;;5062343;28;20478;-55
2022/09/09 12:34:25;;;;;;;1.60;0.50;;;;;;;;;;5062167;28;20024;-55
2022/09/09 12:36:57;;;;;;;1.45;0.70;;;;;;;;;;5057508;28;20038;-57
2022/09/09 12:39:32;;;;;;;3.42;0.70;;;;;;;;;;5062100;28;20025;-58
2022/09/09 12:41:58;;;;;;;3.63;0.60;;;;;;;;;;5064017;28;20108;-56
2022/09/09 12:44:25;;;;;;;3.78;0.60;;;;;;;;;;5061696;28;20946;-56
2022/09/09 12:46:52;;;;;;;4.00;0.73;;;;;;;;;;5061417;28;20516;-56
2022/09/09 12:49:30;;;;;;;2.58;0.80;;;;;;;;;;5064036;28;20120;-55
2022/09/09 12:51:57;;;;;;;4.05;0.40;;;;;;;;;;5062149;28;20437;-55
2022/09/09 12:54:23;;;;;;;2.92;0.60;;;;;;;;;;5062835;28;20097;-58
2022/09/09 12:56:49;;;;;;;3.03;0.50;;;;;;;;;;5061322;28;20024;-58
2022/09/09 12:59:34;;;;;;;2.40;0.50;;;;;;;;;;5063961;28;20063;-59
2022/09/09 13:01:59;;;;;;;4.95;0.88;;;;;;;;;;5060884;28;20644;-59
2022/09/09 13:04:25;;;;;;;5.85;1.00;;;;;;;;;;5063373;28;20123;-58
2022/09/09 13:06:52;;;;;;;4.00;0.88;;;;;;;;;;5063556;28;20299;-59
2022/09/09 13:09:18;;;;;;;4.75;0.80;;;;;;;;;;5063011;28;20032;-58
2022/09/09 13:11:56;;;;;;;5.05;0.80;;;;;;;;;;5063699;28;20103;-58
2022/09/09 13:14:32;;;;;;;3.05;0.70;;;;;;;;;;5062379;28;20051;-58
2022/09/09 13:17:05;;;;;;;4.63;0.80;;;;;;;;;;5062013;28;20024;-58
2022/09/09 13:19:35;;;;;;;3.85;0.70;;;;;;;;;;5065962;28;20111;-58
2022/09/09 13:22:18;;;;;;;4.03;0.75;;;;;;;;;;5067097;28;20675;-58
2022/09/09 13:24:43;;;;;;;2.85;0.77;;;;;;;;;;5064545;28;20367;-58
2022/09/09 13:27:29;;;;;;;5.15;0.60;;;;;;;;;;5064803;28;20062;-58
2022/09/09 13:29:56;;;;;;;3.13;0.70;;;;;;;;;;5064641;28;20437;-58
2022/09/09 13:32:23;;;;;;;2.03;0.70;;;;;;;;;;5063004;28;20489;-58
2022/09/09 13:35:00;;;;;;;3.22;0.68;;;;;;;;;;5063804;28;20043;-58
2022/09/09 13:37:34;;;;;;;2.55;0.60;;;;;;;;;;5065411;28;20107;-58
2022/09/09 13:40:00;;;;;;;5.72;0.60;;;;;;;;;;5063004;28;20029;-58
2022/09/09 13:42:32;;;;;;;2.90;0.60;;;;;;;;;;5067676;28;20033;-59
2022/09/09 13:44:59;;;;;;;3.33;0.50;;;;;;;;;;5065743;28;20580;-59
2022/09/09 13:47:36;;;;;;;1.20;0.40;;;;;;;;;;5065612;28;20743;-59
2022/09/09 13:50:25;;;;;;;2.58;0.60;;;;;;;;;;5064568;28;20021;-59
2022/09/09 13:52:53;;;;;;;1.40;0.50;;;;;;;;;;5066496;28;20043;-58
2022/09/09 13:55:21;;;;;;;1.95;0.63;;;;;;;;;;5067994;28;20039;-58
2022/09/09 13:57:54;;;;;;;2.90;0.65;;;;;;;;;;5065733;28;20028;-60
2022/09/09 14:00:20;;;;;;;5.05;0.80;;;;;;;;;;5064914;28;20028;-60
2022/09/09 14:02:47;;;;;;;3.88;0.60;;;;;;;;;;5065473;28;20063;-60
2022/09/09 14:05:12;;;;;;;3.03;0.60;;;;;;;;;;5065433;28;20020;-60
2022/09/09 14:07:40;;;;;;;2.83;0.70;;;;;;;;;;5065260;28;20414;-60
2022/09/09 14:10:06;;;;;;;4.32;0.73;;;;;;;;;;5068940;28;20032;-59
2022/09/09 14:12:32;;;;;;;4.68;0.73;;;;;;;;;;5066266;28;20024;-59
2022/09/09 14:14:59;;;;;;;1.80;0.63;;;;;;;;;;5066805;28;20596;-59
2022/09/09 14:17:27;;;;;;;2.42;0.80;;;;;;;;;;5064001;28;20612;-58
2022/09/09 14:19:52;;;;;;;1.08;0.40;;;;;;;;;;5064779;28;20425;-58
2022/09/09 14:22:18;;;;;;;1.67;0.50;;;;;;;;;;5066908;28;20021;-59
2022/09/09 14:24:43;;;;;;;3.88;0.77;;;;;;;;;;5065380;28;20032;-59
2022/09/09 14:27:08;;;;;;;6.90;0.82;;;;;;;;;;5064484;28;20137;-60
2022/09/09 14:29:34;;;;;;;3.63;0.55;;;;;;;;;;5065018;28;20116;-59
2022/09/09 14:32:00;;;;;;;3.55;0.63;;;;;;;;;;5068066;28;20033;-60
2022/09/09 14:34:26;;;;;;;4.95;0.93;;;;;;;;;;5066965;28;20904;-57
2022/09/09 14:36:51;;;;;;;2.78;0.70;;;;;;;;;;5064555;28;20037;-59
2022/09/09 14:39:17;;;;;;;3.40;0.70;;;;;;;;;;5062178;28;20036;-58
2022/09/09 14:41:42;;;;;;;2.80;0.85;;;;;;;;;;5057717;28;20032;-58
2022/09/09 14:44:08;;;;;;;5.18;0.80;;;;;;;;;;5058490;28;20051;-57
2022/09/09 14:46:33;;;;;;;2.75;0.68;;;;;;;;;;5065633;28;20035;-58
2022/09/09 14:48:59;;;;;;;4.25;0.68;;;;;;;;;;5061349;28;20044;-58
2022/09/09 14:51:27;;;;;;;1.33;0.47;;;;;;;;;;5067374;28;20032;-58
2022/09/09 14:53:57;;;;;;;4.65;1.27;;;;;;;;;;5067843;28;20066;-59
2022/09/09 14:56:26;;;;;;;2.17;0.60;;;;;;;;;;5066950;28;20035;-60
2022/09/09 14:58:55;;;;;;;1.27;0.60;;;;;;;;;;5067979;28;20028;-58
2022/09/09 15:01:20;;;;;;;2.40;0.57;;;;;;;;;;5065565;28;20071;-58
2022/09/09 15:03:51;;;;;;;1.83;0.57;;;;;;;;;;5066039;28;20505;-58
2022/09/09 15:06:17;;;;;;;2.92;0.60;;;;;;;;;;5067085;28;20063;-59
2022/09/09 15:08:45;;;;;;;2.35;0.70;;;;;;;;;;5065524;28;20649;-59
2022/09/09 15:11:12;;;;;;;4.15;0.63;;;;;;;;;;5064724;28;20024;-60
2022/09/09 15:13:39;;;;;;;2.08;0.65;;;;;;;;;;5066117;28;20036;-59